createdAt,value
2022-09-04T00:00:01.701Z,1.88
2022-09-04T00:01:33.296Z,2.06
2022-09-04T00:03:09.453Z,1.84
2022-09-04T00:04:41.063Z,1.86
2022-09-04T00:06:12.500Z,1.72
2022-09-04T00:07:43.928Z,1.78
2022-09-04T00:09:16.268Z,2.05
2022-09-04T00:10:48.095Z,2.13
2022-09-04T00:12:22.688Z,1.89
2022-09-04T00:13:57.884Z,1.74
2022-09-04T00:15:29.257Z,1.89
2022-09-04T00:17:00.979Z,1.94
2022-09-04T00:18:32.333Z,1.86
2022-09-04T00:20:03.704Z,1.87
2022-09-04T00:21:35.080Z,1.88
2022-09-04T00:23:06.680Z,1.87
2022-09-04T00:24:38.048Z,1.83
2022-09-04T00:26:09.439Z,1.78
2022-09-04T00:27:40.821Z,1.82
2022-09-04T00:29:12.287Z,1.82
2022-09-04T00:30:43.750Z,1.84
2022-09-04T00:32:15.254Z,1.95
2022-09-04T00:33:48.052Z,1.88
2022-09-04T00:35:19.451Z,2.06
2022-09-04T00:36:51.209Z,1.80
2022-09-04T00:38:22.755Z,1.89
2022-09-04T00:39:54.348Z,1.98
2022-09-04T00:41:25.837Z,1.87
2022-09-04T00:42:57.186Z,2.03
2022-09-04T00:44:28.564Z,2.38
2022-09-04T00:46:00.742Z,2.31
2022-09-04T00:47:32.342Z,2.58
2022-09-04T00:49:03.736Z,2.50
2022-09-04T00:50:35.142Z,2.34
2022-09-04T00:52:06.436Z,2.35
2022-09-04T00:53:37.800Z,2.17
2022-09-04T00:55:09.233Z,2.18
2022-09-04T00:56:40.785Z,2.39
2022-09-04T00:58:12.084Z,2.01
2022-09-04T00:59:43.471Z,2.02
2022-09-04T01:01:14.983Z,2.34
2022-09-04T01:02:46.405Z,2.34
2022-09-04T01:04:19.489Z,2.36
2022-09-04T01:05:51.041Z,2.22
2022-09-04T01:07:22.424Z,2.12
2022-09-04T01:08:56.459Z,2.22
2022-09-04T01:10:28.092Z,2.34
2022-09-04T01:11:59.686Z,2.18
2022-09-04T01:13:31.018Z,2.09
2022-09-04T01:15:02.366Z,2.37
2022-09-04T01:16:33.880Z,2.29
2022-09-04T01:18:05.269Z,2.13
2022-09-04T01:19:36.607Z,1.90
2022-09-04T01:21:07.993Z,2.37
2022-09-04T01:22:39.380Z,2.18
2022-09-04T01:24:10.720Z,2.09
2022-09-04T01:25:43.209Z,2.20
2022-09-04T01:27:15.641Z,2.13
2022-09-04T01:28:47.261Z,2.03
2022-09-04T01:30:18.920Z,2.07
2022-09-04T01:31:50.401Z,1.93
2022-09-04T01:33:21.822Z,1.88
2022-09-04T01:34:58.158Z,1.96
2022-09-04T01:36:29.718Z,1.94
2022-09-04T01:38:01.171Z,1.98
2022-09-04T01:39:32.699Z,2.08
2022-09-04T01:41:04.294Z,2.03
2022-09-04T01:42:35.713Z,1.94
2022-09-04T01:44:07.102Z,2.13
2022-09-04T01:45:38.649Z,2.06
2022-09-04T01:47:10.021Z,2.12
2022-09-04T01:48:41.411Z,1.94
2022-09-04T01:50:12.725Z,1.94
2022-09-04T01:51:44.192Z,1.96
2022-09-04T01:53:15.498Z,1.95
2022-09-04T01:54:46.857Z,2.15
2022-09-04T01:56:18.255Z,1.99
2022-09-04T01:57:49.597Z,1.77
2022-09-04T01:59:20.952Z,1.95
2022-09-04T02:00:52.426Z,2.11
2022-09-04T02:02:29.340Z,2.05
2022-09-04T02:04:00.769Z,2.01
2022-09-04T02:05:32.241Z,1.85
2022-09-04T02:07:03.577Z,1.84
2022-09-04T02:08:35.057Z,2.04
2022-09-04T02:10:06.437Z,2.18
2022-09-04T02:11:37.808Z,2.06
2022-09-04T02:13:09.117Z,1.96
2022-09-04T02:14:40.459Z,2.01
2022-09-04T02:16:11.809Z,2.13
2022-09-04T02:17:43.185Z,2.04
2022-09-04T02:19:14.612Z,2.11
2022-09-04T02:20:45.929Z,2.06
2022-09-04T02:22:17.276Z,1.90
2022-09-04T02:23:48.907Z,2.06
2022-09-04T02:25:20.340Z,2.10
2022-09-04T02:26:51.723Z,2.03
2022-09-04T02:28:23.126Z,2.04
2022-09-04T02:29:54.586Z,1.80
2022-09-04T02:31:26.043Z,1.98
2022-09-04T02:32:57.415Z,2.16
2022-09-04T02:34:29.041Z,2.14
2022-09-04T02:36:00.433Z,1.99
2022-09-04T02:37:31.850Z,1.93
2022-09-04T02:39:03.129Z,2.16
2022-09-04T02:40:34.503Z,2.06
2022-09-04T02:42:05.881Z,2.07
2022-09-04T02:43:37.428Z,2.10
2022-09-04T02:45:08.734Z,1.92
2022-09-04T02:46:43.233Z,2.03
2022-09-04T02:48:14.828Z,2.13
2022-09-04T02:49:46.305Z,2.00
2022-09-04T02:51:17.746Z,2.08
2022-09-04T02:52:49.189Z,2.12
2022-09-04T02:54:20.586Z,2.09
2022-09-04T02:55:52.173Z,2.16
2022-09-04T02:57:23.523Z,2.10
2022-09-04T02:58:54.837Z,2.42
2022-09-04T03:00:26.354Z,2.24
2022-09-04T03:01:57.845Z,2.08
2022-09-04T03:03:29.775Z,2.16
2022-09-04T03:05:01.111Z,2.34
2022-09-04T03:06:32.500Z,2.35
2022-09-04T03:08:03.777Z,2.36
2022-09-04T03:09:35.139Z,2.42
2022-09-04T03:11:06.526Z,2.36
2022-09-04T03:12:37.958Z,2.30
2022-09-04T03:14:10.357Z,2.20
2022-09-04T03:15:41.753Z,2.40
2022-09-04T03:17:13.064Z,2.36
2022-09-04T03:18:44.392Z,2.27
2022-09-04T03:20:16.575Z,2.18
2022-09-04T03:21:49.302Z,2.30
2022-09-04T03:23:20.714Z,2.15
2022-09-04T03:24:52.133Z,2.33
2022-09-04T03:26:25.647Z,2.25
2022-09-04T03:27:57.122Z,2.25
2022-09-04T03:29:28.503Z,2.23
2022-09-04T03:30:59.859Z,2.42
2022-09-04T03:32:31.222Z,2.32
2022-09-04T03:34:02.851Z,2.32
2022-09-04T03:35:34.172Z,2.23
2022-09-04T03:37:05.533Z,2.21
2022-09-04T03:38:36.933Z,2.15
2022-09-04T03:40:08.489Z,2.28
2022-09-04T03:41:40.275Z,2.29
2022-09-04T03:43:11.667Z,2.32
2022-09-04T03:44:42.976Z,2.47
2022-09-04T03:46:14.362Z,2.34
2022-09-04T03:47:45.789Z,2.41
2022-09-04T03:49:17.219Z,2.36
2022-09-04T03:50:48.547Z,2.59
2022-09-04T03:52:20.143Z,2.22
2022-09-04T03:53:51.846Z,2.07
2022-09-04T03:55:23.336Z,2.33
2022-09-04T03:56:54.676Z,2.54
2022-09-04T03:58:26.175Z,2.78
2022-09-04T03:59:57.890Z,2.65
2022-09-04T04:01:29.229Z,2.81
2022-09-04T04:03:00.942Z,2.87
2022-09-04T04:04:32.432Z,2.72
2022-09-04T04:06:03.979Z,2.83
2022-09-04T04:07:35.320Z,2.87
2022-09-04T04:09:07.817Z,2.95
2022-09-04T04:10:39.434Z,2.86
2022-09-04T04:12:10.827Z,2.78
2022-09-04T04:13:42.147Z,2.70
2022-09-04T04:15:13.487Z,2.70
2022-09-04T04:16:44.900Z,2.83
2022-09-04T04:18:27.327Z,2.63
2022-09-04T04:19:58.611Z,2.50
2022-09-04T04:21:30.187Z,2.46
2022-09-04T04:23:01.553Z,2.52
2022-09-04T04:24:37.854Z,2.49
2022-09-04T04:26:09.153Z,2.59
2022-09-04T04:27:40.475Z,2.60
2022-09-04T04:29:11.768Z,2.58
2022-09-04T04:30:43.320Z,2.66
2022-09-04T04:32:14.938Z,2.64
2022-09-04T04:33:46.469Z,2.68
2022-09-04T04:35:17.932Z,2.44
2022-09-04T04:36:49.280Z,2.70
2022-09-04T04:38:20.866Z,2.71
2022-09-04T04:39:52.310Z,2.84
2022-09-04T04:41:23.845Z,2.57
2022-09-04T04:42:55.255Z,2.55
2022-09-04T04:44:26.665Z,2.65
2022-09-04T04:45:57.977Z,2.65
2022-09-04T04:47:29.293Z,2.65
2022-09-04T04:49:00.582Z,2.62
2022-09-04T04:50:32.013Z,2.66
2022-09-04T04:52:03.665Z,2.83
2022-09-04T04:53:35.097Z,2.88
2022-09-04T04:55:06.519Z,2.72
2022-09-04T04:56:37.864Z,2.72
2022-09-04T04:58:09.776Z,2.76
2022-09-04T04:59:41.171Z,2.72
2022-09-04T05:01:12.450Z,2.66
2022-09-04T05:02:44.244Z,2.78
2022-09-04T05:04:15.659Z,2.64
2022-09-04T05:05:46.997Z,2.75
2022-09-04T05:07:18.370Z,2.94
2022-09-04T05:08:49.695Z,2.81
2022-09-04T05:10:21.114Z,2.74
2022-09-04T05:11:52.586Z,2.61
2022-09-04T05:13:23.908Z,2.53
2022-09-04T05:14:55.290Z,2.84
2022-09-04T05:16:26.865Z,3.13
2022-09-04T05:17:58.513Z,2.87
2022-09-04T05:19:29.848Z,2.77
2022-09-04T05:21:01.229Z,2.60
2022-09-04T05:22:34.491Z,2.55
2022-09-04T05:24:05.923Z,2.40
2022-09-04T05:25:37.266Z,2.50
2022-09-04T05:27:08.543Z,2.49
2022-09-04T05:28:39.917Z,2.49
2022-09-04T05:30:16.780Z,2.47
2022-09-04T05:31:48.168Z,2.66
2022-09-04T05:33:19.856Z,2.67
2022-09-04T05:34:51.214Z,2.69
2022-09-04T05:36:22.648Z,2.46
2022-09-04T05:37:54.543Z,2.57
2022-09-04T05:39:26.187Z,3.11
2022-09-04T05:40:57.794Z,3.01
2022-09-04T05:42:29.190Z,2.66
2022-09-04T05:44:00.609Z,2.55
2022-09-04T05:45:32.016Z,2.54
2022-09-04T05:47:03.397Z,2.56
2022-09-04T05:48:34.746Z,2.69
2022-09-04T05:50:06.117Z,2.60
2022-09-04T05:51:37.480Z,2.41
2022-09-04T05:53:08.807Z,2.48
2022-09-04T05:54:40.125Z,2.73
2022-09-04T05:56:11.512Z,2.78
2022-09-04T05:57:42.844Z,2.60
2022-09-04T05:59:14.144Z,2.74
2022-09-04T06:00:45.707Z,2.59
2022-09-04T06:02:42.577Z,2.72
2022-09-04T06:04:14.014Z,2.45
2022-09-04T06:05:45.631Z,2.63
2022-09-04T06:07:17.166Z,2.44
2022-09-04T06:08:48.755Z,2.61
2022-09-04T06:10:20.126Z,2.66
2022-09-04T06:11:51.635Z,2.59
2022-09-04T06:13:23.069Z,2.48
2022-09-04T06:14:54.517Z,2.46
2022-09-04T06:16:26.062Z,2.47
2022-09-04T06:17:57.488Z,2.39
2022-09-04T06:19:28.846Z,2.47
2022-09-04T06:21:05.577Z,2.33
2022-09-04T06:22:36.963Z,2.26
2022-09-04T06:24:09.043Z,2.48
2022-09-04T06:25:40.517Z,2.40
2022-09-04T06:27:11.847Z,2.54
2022-09-04T06:28:43.410Z,2.31
2022-09-04T06:30:15.180Z,2.51
2022-09-04T06:31:46.637Z,2.47
2022-09-04T06:33:18.300Z,2.32
2022-09-04T06:34:49.707Z,2.32
2022-09-04T06:36:21.040Z,2.27
2022-09-04T06:37:52.398Z,2.33
2022-09-04T06:39:23.867Z,2.25
2022-09-04T06:40:55.323Z,2.51
2022-09-04T06:42:26.831Z,2.54
2022-09-04T06:43:58.207Z,2.53
2022-09-04T06:45:29.853Z,2.35
2022-09-04T06:47:01.383Z,2.35
2022-09-04T06:48:32.740Z,2.19
2022-09-04T06:50:04.224Z,2.33
2022-09-04T06:51:35.726Z,2.54
2022-09-04T06:53:07.479Z,2.39
2022-09-04T06:54:38.934Z,2.42
2022-09-04T06:56:10.254Z,2.19
2022-09-04T06:57:42.813Z,2.41
2022-09-04T06:59:14.116Z,2.39
2022-09-04T07:00:45.648Z,2.33
2022-09-04T07:02:17.197Z,2.29
2022-09-04T07:03:48.700Z,2.34
2022-09-04T07:05:20.081Z,2.41
2022-09-04T07:06:51.422Z,2.30
2022-09-04T07:08:23.075Z,2.40
2022-09-04T07:09:56.769Z,2.38
2022-09-04T07:11:31.413Z,2.56
2022-09-04T07:13:02.845Z,2.36
2022-09-04T07:14:34.552Z,2.38
2022-09-04T07:16:06.081Z,2.42
2022-09-04T07:17:37.558Z,2.47
2022-09-04T07:19:09.162Z,2.45
2022-09-04T07:20:40.751Z,2.37
2022-09-04T07:22:12.440Z,2.41
2022-09-04T07:23:44.199Z,2.20
2022-09-04T07:25:15.977Z,2.27
2022-09-04T07:26:47.341Z,2.28
2022-09-04T07:28:18.889Z,2.32
2022-09-04T07:29:50.338Z,2.16
2022-09-04T07:31:22.006Z,2.17
2022-09-04T07:32:53.599Z,2.01
2022-09-04T07:34:25.014Z,2.27
2022-09-04T07:35:56.387Z,2.12
2022-09-04T07:37:28.066Z,2.03
2022-09-04T07:38:59.657Z,2.22
2022-09-04T07:40:31.107Z,2.26
2022-09-04T07:42:02.625Z,2.27
2022-09-04T07:43:34.297Z,2.23
2022-09-04T07:45:06.124Z,2.16
2022-09-04T07:46:37.566Z,2.27
2022-09-04T07:48:08.977Z,2.54
2022-09-04T07:49:41.714Z,2.12
2022-09-04T07:51:14.237Z,2.07
2022-09-04T07:52:45.682Z,2.05
2022-09-04T07:54:22.643Z,2.05
2022-09-04T07:55:55.028Z,2.16
2022-09-04T07:57:26.959Z,2.17
2022-09-04T07:58:58.698Z,2.24
2022-09-04T08:00:30.739Z,2.27
2022-09-04T08:02:02.306Z,2.16
2022-09-04T08:03:33.827Z,2.19
2022-09-04T08:05:05.728Z,2.24
2022-09-04T08:06:37.179Z,2.23
2022-09-04T08:08:08.575Z,2.01
2022-09-04T08:09:39.978Z,1.94
2022-09-04T08:11:11.692Z,2.01
2022-09-04T08:12:43.105Z,1.95
2022-09-04T08:14:14.742Z,2.03
2022-09-04T08:15:46.270Z,2.05
2022-09-04T08:17:17.797Z,2.14
2022-09-04T08:18:49.405Z,2.25
2022-09-04T08:20:20.827Z,2.15
2022-09-04T08:21:52.535Z,2.28
2022-09-04T08:23:24.018Z,2.40
2022-09-04T08:24:55.410Z,2.40
2022-09-04T08:26:26.949Z,2.71
2022-09-04T08:27:58.463Z,2.65
2022-09-04T08:29:29.922Z,2.62
2022-09-04T08:31:01.557Z,2.43
2022-09-04T08:32:38.250Z,2.56
2022-09-04T08:34:11.674Z,2.56
2022-09-04T08:35:43.119Z,2.57
2022-09-04T08:37:17.454Z,2.56
2022-09-04T08:38:53.586Z,2.54
2022-09-04T08:40:25.059Z,2.60
2022-09-04T08:41:56.435Z,2.67
2022-09-04T08:43:28.048Z,2.38
2022-09-04T08:44:59.528Z,2.40
2022-09-04T08:46:31.143Z,2.67
2022-09-04T08:48:02.708Z,2.69
2022-09-04T08:49:34.133Z,2.69
2022-09-04T08:51:05.572Z,2.50
2022-09-04T08:52:36.936Z,2.94
2022-09-04T08:54:08.331Z,2.65
2022-09-04T08:55:40.621Z,2.66
2022-09-04T08:57:12.039Z,2.65
2022-09-04T08:58:47.527Z,2.60
2022-09-04T09:00:24.475Z,2.81
2022-09-04T09:01:55.869Z,2.53
2022-09-04T09:03:27.237Z,2.50
2022-09-04T09:04:58.650Z,2.81
2022-09-04T09:06:30.090Z,2.62
2022-09-04T09:08:01.505Z,2.60
2022-09-04T09:09:32.941Z,2.85
2022-09-04T09:11:04.338Z,2.56
2022-09-04T09:12:41.371Z,2.41
2022-09-04T09:14:13.266Z,2.79
2022-09-04T09:15:44.685Z,2.99
2022-09-04T09:17:16.211Z,3.16
2022-09-04T09:18:47.641Z,2.62
2022-09-04T09:20:20.032Z,2.83
2022-09-04T09:21:51.610Z,2.79
2022-09-04T09:23:23.109Z,2.48
2022-09-04T09:24:54.515Z,2.45
2022-09-04T09:26:25.999Z,2.44
2022-09-04T09:27:57.428Z,2.47
2022-09-04T09:29:28.807Z,2.57
2022-09-04T09:31:01.853Z,2.62
2022-09-04T09:32:33.308Z,2.77
2022-09-04T09:34:04.741Z,2.82
2022-09-04T09:35:36.183Z,2.83
2022-09-04T09:37:07.591Z,2.78
2022-09-04T09:38:39.206Z,3.20
2022-09-04T09:40:10.842Z,2.73
2022-09-04T09:41:42.456Z,2.52
2022-09-04T09:43:13.891Z,2.75
2022-09-04T09:44:45.326Z,2.48
2022-09-04T09:46:16.824Z,2.39
2022-09-04T09:47:48.351Z,2.15
2022-09-04T09:49:19.770Z,2.36
2022-09-04T09:50:51.413Z,2.36
2022-09-04T09:52:22.827Z,2.62
2022-09-04T09:53:54.271Z,2.65
2022-09-04T09:55:25.855Z,2.47
2022-09-04T09:56:57.404Z,2.65
2022-09-04T09:58:28.874Z,2.65
2022-09-04T10:00:01.795Z,2.64
2022-09-04T10:01:33.208Z,2.66
2022-09-04T10:03:04.648Z,2.64
2022-09-04T10:04:36.289Z,2.70
2022-09-04T10:06:07.780Z,2.43
2022-09-04T10:07:39.264Z,2.64
2022-09-04T10:09:11.524Z,2.99
2022-09-04T10:10:42.945Z,3.05
2022-09-04T10:12:14.420Z,3.23
2022-09-04T10:13:46.179Z,3.13
2022-09-04T10:15:17.647Z,3.24
2022-09-04T10:16:49.399Z,2.93
2022-09-04T10:18:21.148Z,2.66
2022-09-04T10:19:52.557Z,2.65
2022-09-04T10:21:23.987Z,3.92
2022-09-04T10:23:01.510Z,3.12
2022-09-04T10:24:32.921Z,3.17
2022-09-04T10:26:04.408Z,3.72
2022-09-04T10:27:37.758Z,2.78
2022-09-04T10:29:12.157Z,2.67
2022-09-04T10:30:43.714Z,2.47
2022-09-04T10:32:20.279Z,2.59
2022-09-04T10:33:51.775Z,2.70
2022-09-04T10:35:23.206Z,2.68
2022-09-04T10:36:54.623Z,2.41
2022-09-04T10:38:28.379Z,2.43
2022-09-04T10:39:59.902Z,2.34
2022-09-04T10:41:31.461Z,2.39
2022-09-04T10:43:02.958Z,2.34
2022-09-04T10:44:34.636Z,2.43
2022-09-04T10:46:06.305Z,2.39
2022-09-04T10:47:37.863Z,2.85
2022-09-04T10:49:14.456Z,2.80
2022-09-04T10:50:46.007Z,2.60
2022-09-04T10:52:17.607Z,2.69
2022-09-04T10:53:49.164Z,2.93
2022-09-04T10:55:20.629Z,3.06
2022-09-04T10:56:52.182Z,2.68
2022-09-04T10:58:23.632Z,2.45
2022-09-04T10:59:58.963Z,2.56
2022-09-04T11:01:30.821Z,2.71
2022-09-04T11:03:02.348Z,2.48
2022-09-04T11:04:33.894Z,2.63
2022-09-04T11:06:05.531Z,2.79
2022-09-04T11:07:37.046Z,2.48
2022-09-04T11:09:08.547Z,2.59
2022-09-04T11:10:40.064Z,2.40
2022-09-04T11:12:16.913Z,2.45
2022-09-04T11:13:51.533Z,2.39
2022-09-04T11:15:23.295Z,2.38
2022-09-04T11:16:57.095Z,2.39
2022-09-04T11:18:28.969Z,2.27
2022-09-04T11:20:00.553Z,2.55
2022-09-04T11:21:32.045Z,3.38
2022-09-04T11:23:03.894Z,2.63
2022-09-04T11:24:35.412Z,2.49
2022-09-04T11:26:06.950Z,2.66
2022-09-04T11:27:38.496Z,2.29
2022-09-04T11:29:10.016Z,2.32
2022-09-04T11:30:47.941Z,2.08
2022-09-04T11:32:19.786Z,2.14
2022-09-04T11:33:51.271Z,2.33
2022-09-04T11:35:22.879Z,2.44
2022-09-04T11:36:54.357Z,2.28
2022-09-04T11:38:25.847Z,2.24
2022-09-04T11:39:57.449Z,2.21
2022-09-04T11:41:29.116Z,2.05
2022-09-04T11:43:00.628Z,2.25
2022-09-04T11:44:32.116Z,2.11
2022-09-04T11:46:03.718Z,2.06
2022-09-04T11:47:35.361Z,2.16
2022-09-04T11:49:07.113Z,1.95
2022-09-04T11:50:39.094Z,2.00
2022-09-04T11:52:10.729Z,1.78
2022-09-04T11:53:42.561Z,1.74
2022-09-04T11:55:14.175Z,1.73
2022-09-04T11:56:46.780Z,1.55
2022-09-04T11:58:18.300Z,1.77
2022-09-04T11:59:49.901Z,1.76
2022-09-04T12:01:21.734Z,1.60
2022-09-04T12:02:53.258Z,1.77
2022-09-04T12:04:25.120Z,1.66
2022-09-04T12:05:56.773Z,1.46
2022-09-04T12:07:33.621Z,1.53
2022-09-04T12:09:09.635Z,1.42
2022-09-04T12:10:41.343Z,1.50
2022-09-04T12:12:12.943Z,1.68
2022-09-04T12:13:44.571Z,1.70
2022-09-04T12:15:16.232Z,2.11
2022-09-04T12:16:48.386Z,1.71
2022-09-04T12:18:20.004Z,1.53
2022-09-04T12:19:51.583Z,1.65
2022-09-04T12:21:23.775Z,1.53
2022-09-04T12:22:55.378Z,1.73
2022-09-04T12:24:26.985Z,1.55
2022-09-04T12:25:58.577Z,1.50
2022-09-04T12:27:30.201Z,1.51
2022-09-04T12:29:01.974Z,1.53
2022-09-04T12:30:33.610Z,1.62
2022-09-04T12:32:05.202Z,1.58
2022-09-04T12:33:36.835Z,1.56
2022-09-04T12:35:08.417Z,1.59
2022-09-04T12:36:40.043Z,1.62
2022-09-04T12:38:11.630Z,1.55
2022-09-04T12:39:43.328Z,1.57
2022-09-04T12:41:14.941Z,1.68
2022-09-04T12:42:47.351Z,1.64
2022-09-04T12:44:18.933Z,1.78
2022-09-04T12:45:50.567Z,1.59
2022-09-04T12:47:22.221Z,1.50
2022-09-04T12:48:53.771Z,1.50
2022-09-04T12:50:26.501Z,1.52
2022-09-04T12:51:58.128Z,2.54
2022-09-04T12:53:30.494Z,2.01
2022-09-04T12:55:02.131Z,1.52
2022-09-04T12:56:33.744Z,1.52
2022-09-04T12:58:05.242Z,1.45
2022-09-04T12:59:36.819Z,1.45
2022-09-04T13:01:08.412Z,1.61
2022-09-04T13:02:40.114Z,1.41
2022-09-04T13:04:11.655Z,1.39
2022-09-04T13:05:52.709Z,1.45
2022-09-04T13:07:25.201Z,1.53
2022-09-04T13:08:56.834Z,1.41
2022-09-04T13:10:28.422Z,1.33
2022-09-04T13:11:59.916Z,1.56
2022-09-04T13:13:31.478Z,1.53
2022-09-04T13:15:02.990Z,1.43
2022-09-04T13:16:34.607Z,1.51
2022-09-04T13:18:06.143Z,1.42
2022-09-04T13:19:38.127Z,1.51
2022-09-04T13:21:09.844Z,1.52
2022-09-04T13:22:41.512Z,1.43
2022-09-04T13:24:13.005Z,1.41
2022-09-04T13:25:44.541Z,1.49
2022-09-04T13:27:16.106Z,1.48
2022-09-04T13:28:47.633Z,1.48
2022-09-04T13:30:20.293Z,1.39
2022-09-04T13:31:52.815Z,1.54
2022-09-04T13:33:24.601Z,1.44
2022-09-04T13:34:56.281Z,1.45
2022-09-04T13:36:27.829Z,1.31
2022-09-04T13:38:04.428Z,1.25
2022-09-04T13:39:35.996Z,1.31
2022-09-04T13:41:07.545Z,1.26
2022-09-04T13:42:39.160Z,1.39
2022-09-04T13:44:14.117Z,1.37
2022-09-04T13:45:45.677Z,1.26
2022-09-04T13:47:17.432Z,1.22
2022-09-04T13:48:49.107Z,1.30
2022-09-04T13:50:25.016Z,1.19
2022-09-04T13:51:57.361Z,1.30
2022-09-04T13:53:28.922Z,1.36
2022-09-04T13:55:00.453Z,1.36
2022-09-04T13:56:31.977Z,1.30
2022-09-04T13:58:03.448Z,1.40
2022-09-04T13:59:35.004Z,1.35
2022-09-04T14:01:06.780Z,1.30
2022-09-04T14:02:38.350Z,1.54
2022-09-04T14:04:10.048Z,1.50
2022-09-04T14:05:41.660Z,1.40
2022-09-04T14:07:14.542Z,1.52
2022-09-04T14:08:46.082Z,1.85
2022-09-04T14:10:36.685Z,2.10
2022-09-04T14:12:08.347Z,1.98
2022-09-04T14:13:39.881Z,1.81
2022-09-04T14:15:11.444Z,1.44
2022-09-04T14:16:42.975Z,1.36
2022-09-04T14:18:14.432Z,1.44
2022-09-04T14:19:46.022Z,1.47
2022-09-04T14:21:17.510Z,1.27
2022-09-04T14:22:49.064Z,1.21
2022-09-04T14:24:24.090Z,1.29
2022-09-04T14:26:01.022Z,1.28
2022-09-04T14:27:32.529Z,1.25
2022-09-04T14:29:04.328Z,1.22
2022-09-04T14:30:36.157Z,1.41
2022-09-04T14:32:07.775Z,1.30
2022-09-04T14:33:39.777Z,1.38
2022-09-04T14:35:11.301Z,1.37
2022-09-04T14:36:42.847Z,1.33
2022-09-04T14:38:14.343Z,1.35
2022-09-04T14:39:46.014Z,1.27
2022-09-04T14:41:17.518Z,1.28
2022-09-04T14:42:49.049Z,1.29
2022-09-04T14:44:20.542Z,1.63
2022-09-04T14:45:52.058Z,1.80
2022-09-04T14:47:23.581Z,1.81
2022-09-04T14:48:55.107Z,1.24
2022-09-04T14:50:26.623Z,1.97
2022-09-04T14:51:58.158Z,1.60
2022-09-04T14:53:29.661Z,1.56
2022-09-04T14:55:01.226Z,1.71
2022-09-04T14:56:32.816Z,2.60
2022-09-04T14:58:04.315Z,1.49
2022-09-04T14:59:35.942Z,1.59
2022-09-04T15:01:12.849Z,1.36
2022-09-04T15:02:49.750Z,1.66
2022-09-04T15:04:21.249Z,1.61
2022-09-04T15:05:52.750Z,1.76
2022-09-04T15:07:24.301Z,1.44
2022-09-04T15:08:55.900Z,1.37
2022-09-04T15:10:27.422Z,1.44
2022-09-04T15:12:21.037Z,1.32
2022-09-04T15:13:55.230Z,1.37
2022-09-04T15:15:27.157Z,1.25
2022-09-04T15:16:58.703Z,1.17
2022-09-04T15:18:40.370Z,1.33
2022-09-04T15:20:12.237Z,1.34
2022-09-04T15:21:48.050Z,1.37
2022-09-04T15:23:19.838Z,1.40
2022-09-04T15:24:51.487Z,1.37
2022-09-04T15:26:23.062Z,1.27
2022-09-04T15:27:54.972Z,1.28
2022-09-04T15:29:26.819Z,1.30
2022-09-04T15:30:58.390Z,1.44
2022-09-04T15:32:30.036Z,1.39
2022-09-04T15:34:01.574Z,1.36
2022-09-04T15:35:33.978Z,1.34
2022-09-04T15:37:27.560Z,1.25
2022-09-04T15:39:00.923Z,1.34
2022-09-04T15:40:32.649Z,1.35
2022-09-04T15:42:04.464Z,1.38
2022-09-04T15:43:36.375Z,1.27
2022-09-04T15:45:07.998Z,1.35
2022-09-04T15:46:41.637Z,1.55
2022-09-04T15:48:13.348Z,1.34
2022-09-04T15:49:44.910Z,1.48
2022-09-04T15:51:18.866Z,1.35
2022-09-04T15:52:50.556Z,1.30
2022-09-04T15:54:27.268Z,1.41
2022-09-04T15:55:58.843Z,1.38
2022-09-04T15:57:30.969Z,1.37
2022-09-04T15:59:02.550Z,1.54
2022-09-04T16:00:34.126Z,1.33
2022-09-04T16:02:05.632Z,1.47
2022-09-04T16:03:37.346Z,1.62
2022-09-04T16:05:08.849Z,1.26
2022-09-04T16:06:40.400Z,1.52
2022-09-04T16:08:11.910Z,1.62
2022-09-04T16:09:43.447Z,1.93
2022-09-04T16:11:14.936Z,1.76
2022-09-04T16:12:46.456Z,3.32
2022-09-04T16:14:18.074Z,3.89
2022-09-04T16:15:49.754Z,2.16
2022-09-04T16:17:21.373Z,2.77
2022-09-04T16:18:53.089Z,2.89
2022-09-04T16:20:24.605Z,3.74
2022-09-04T16:21:56.155Z,2.27
2022-09-04T16:23:27.658Z,2.10
2022-09-04T16:24:59.267Z,1.79
2022-09-04T16:26:31.023Z,1.86
2022-09-04T16:28:02.499Z,1.62
2022-09-04T16:29:34.248Z,1.59
2022-09-04T16:31:05.806Z,1.54
2022-09-04T16:32:38.515Z,1.61
2022-09-04T16:34:14.039Z,1.56
2022-09-04T16:35:45.578Z,1.52
2022-09-04T16:37:17.152Z,1.56
2022-09-04T16:38:48.696Z,1.48
2022-09-04T16:40:20.567Z,1.48
2022-09-04T16:41:52.078Z,1.54
2022-09-04T16:43:23.622Z,1.45
2022-09-04T16:44:55.225Z,1.39
2022-09-04T16:46:27.737Z,1.47
2022-09-04T16:48:01.929Z,1.47
2022-09-04T16:50:04.897Z,1.53
2022-09-04T16:51:41.297Z,1.52
2022-09-04T16:53:14.322Z,1.43
2022-09-04T16:54:46.041Z,1.53
2022-09-04T16:56:18.189Z,1.49
2022-09-04T16:57:49.750Z,1.53
2022-09-04T16:59:21.361Z,1.39
2022-09-04T17:00:52.848Z,1.47
2022-09-04T17:02:36.006Z,1.56
2022-09-04T17:04:13.938Z,1.38
2022-09-04T17:05:45.921Z,1.44
2022-09-04T17:07:17.538Z,1.62
2022-09-04T17:08:49.287Z,1.49
2022-09-04T17:10:20.857Z,1.44
2022-09-04T17:11:55.475Z,1.53
2022-09-04T17:13:28.187Z,1.53
2022-09-04T17:14:59.750Z,2.12
2022-09-04T17:16:31.335Z,1.64
2022-09-04T17:18:02.787Z,1.73
2022-09-04T17:19:34.298Z,1.68
2022-09-04T17:23:47.094Z,1.83
2022-09-04T17:30:38.046Z,1.90
2022-09-04T17:33:01.481Z,1.88
2022-09-04T17:40:35.700Z,1.75
2022-09-04T17:42:18.153Z,1.49
2022-09-04T17:43:50.171Z,1.66
2022-09-04T17:45:21.760Z,1.83
2022-09-04T17:46:53.254Z,2.03
2022-09-04T17:48:27.436Z,2.02
2022-09-04T17:49:59.059Z,2.05
2022-09-04T17:51:30.585Z,2.21
2022-09-04T17:53:02.043Z,2.04
2022-09-04T17:54:33.542Z,2.60
2022-09-04T17:56:06.711Z,5.99
2022-09-04T17:57:38.726Z,6.28
2022-09-04T17:59:10.603Z,11.17
2022-09-04T18:00:42.164Z,20.84
2022-09-04T18:02:13.856Z,11.11
2022-09-04T18:04:01.407Z,5.70
2022-09-04T18:05:49.171Z,4.43
2022-09-04T18:07:30.007Z,23.74
2022-09-04T18:09:40.243Z,8.34
2022-09-04T18:11:11.739Z,3.66
2022-09-04T18:12:43.377Z,3.13
2022-09-04T18:14:14.890Z,2.88
2022-09-04T18:15:46.383Z,3.25
2022-09-04T18:17:17.895Z,3.16
2022-09-04T18:18:49.471Z,2.96
2022-09-04T18:20:21.062Z,3.19
2022-09-04T18:22:07.789Z,3.77
2022-09-04T18:23:58.734Z,5.73
2022-09-04T18:25:30.329Z,4.96
2022-09-04T18:27:01.808Z,3.09
2022-09-04T18:28:34.337Z,5.35
2022-09-04T18:34:34.940Z,5.44
2022-09-04T18:38:46.977Z,2.64
2022-09-04T18:41:49.502Z,2.35
2022-09-04T18:52:14.017Z,2.46
2022-09-04T18:53:45.539Z,2.45
2022-09-04T18:55:17.002Z,2.41
2022-09-04T18:56:48.527Z,2.33
2022-09-04T18:58:20.109Z,2.24
2022-09-04T18:59:54.918Z,2.41
2022-09-04T19:02:00.505Z,2.27
2022-09-04T19:03:32.129Z,2.46
2022-09-04T19:05:03.654Z,2.58
2022-09-04T19:06:35.145Z,3.54
2022-09-04T19:08:19.873Z,3.60
2022-09-04T19:09:55.885Z,3.80
2022-09-04T19:11:29.155Z,3.10
2022-09-04T19:13:10.654Z,2.74
2022-09-04T19:14:42.168Z,2.37
2022-09-04T19:16:13.672Z,2.41
2022-09-04T19:17:45.242Z,2.43
2022-09-04T19:19:17.800Z,2.21
2022-09-04T19:20:49.953Z,2.21
2022-09-04T19:22:25.115Z,2.47
2022-09-04T19:23:59.789Z,2.24
2022-09-04T19:25:33.996Z,2.37
2022-09-04T19:27:05.406Z,2.82
2022-09-04T19:29:10.874Z,2.45
2022-09-04T19:30:52.286Z,2.59
2022-09-04T19:32:23.727Z,2.43
2022-09-04T19:33:57.656Z,2.43
2022-09-04T19:35:29.505Z,2.73
2022-09-04T19:37:26.059Z,2.89
2022-09-04T19:46:06.215Z,1.98
2022-09-04T19:47:56.245Z,2.25
2022-09-04T19:52:10.563Z,2.57
2022-09-04T19:55:05.119Z,4.91
2022-09-04T19:57:31.127Z,4.80
2022-09-04T19:59:04.788Z,3.84
2022-09-04T20:00:56.223Z,3.54
2022-09-04T20:02:34.235Z,4.56
2022-09-04T20:04:06.174Z,3.62
2022-09-04T20:05:42.732Z,2.84
2022-09-04T20:07:14.388Z,2.80
2022-09-04T20:08:45.898Z,3.16
2022-09-04T20:10:21.651Z,3.21
2022-09-04T20:11:53.201Z,2.61
2022-09-04T20:13:25.027Z,2.13
2022-09-04T20:14:56.516Z,1.80
2022-09-04T20:16:27.975Z,1.94
2022-09-04T20:17:59.581Z,2.13
2022-09-04T20:19:35.497Z,2.84
2022-09-04T20:21:07.086Z,2.79
2022-09-04T20:22:39.035Z,3.09
2022-09-04T20:24:10.419Z,2.64
2022-09-04T20:25:41.928Z,2.92
2022-09-04T20:27:13.552Z,2.32
2022-09-04T20:28:48.447Z,2.39
2022-09-04T20:30:20.252Z,2.31
2022-09-04T20:31:51.884Z,2.35
2022-09-04T20:33:23.842Z,2.41
2022-09-04T20:34:55.848Z,2.51
2022-09-04T20:36:27.354Z,2.36
2022-09-04T20:37:59.162Z,2.35
2022-09-04T20:39:31.779Z,2.52
2022-09-04T20:41:03.607Z,2.48
2022-09-04T20:42:41.081Z,2.28
2022-09-04T20:44:13.380Z,2.22
2022-09-04T20:50:50.189Z,2.34
2022-09-04T20:54:32.912Z,2.32
2022-09-04T20:56:04.363Z,2.34
2022-09-04T21:02:12.893Z,2.52
2022-09-04T21:04:57.102Z,2.43
2022-09-04T21:06:28.559Z,2.30
2022-09-04T21:07:59.937Z,2.24
2022-09-04T21:09:31.353Z,2.27
2022-09-04T21:11:03.032Z,2.25
2022-09-04T21:12:54.139Z,2.22
2022-09-04T21:14:46.449Z,2.51
2022-09-04T21:16:18.941Z,2.99
2022-09-04T21:17:50.590Z,2.90
2022-09-04T21:19:28.857Z,2.89
2022-09-04T21:21:01.090Z,2.80
2022-09-04T21:22:33.802Z,2.70
2022-09-04T21:24:09.001Z,2.59
2022-09-04T21:25:43.275Z,2.66
2022-09-04T21:27:15.039Z,2.43
2022-09-04T21:28:46.667Z,2.43